Delta Virtual Airport Information Service

Savannah Hilton Head International Airport

ICAO: KSAV Country: United States
Latitude: 32.1276 Longitude: -81.2021
Latest Arrival : JBU1749 (KBOS-KSAV) Latest Departure : JBU842 (KSAV-KJFK)


WX CaptureLIVE
Data provided by noaa.gov | Fetched at 01:52:02

METAR : KSAV 060553Z AUTO 15005KT 10SM CLR 25/23 A2999 RMK AO2 SLP155 60021 T02500233 10283 20244 50003

TAF : KSAV 060521Z 0606/0706 VRB02KT P6SM FEW009 SCT025 BKN120 FM061600 14007KT P6SM VCSH SCT035 BKN150 FM062000 14011KT P6SM VCTS SCT035CB BKN150 FM070100 17004KT P6SM SCT025 OVC080


Runway Data for KSAV
Data provided by openaviationdata.com

Runway ID Mag Var Hdg Length Elevation Surface ILS Freq ILS Id ILS Slope
9 -6 96° 9341 ft 50 ft Concrete 109.9 ISAV 3
18 -6 185° 7017 ft 50 ft Asphalt -- -- --
27 -6 276° 9341 ft 50 ft Concrete -- -- --
36 -6 7017 ft 50 ft Asphalt 111.9 ITPV 3

Savannah Hilton Head International Airport, United States
Use only for reference purposes



Not for navigational purposes.